Data for 08/13/2014

Time Sea-Level Adjusted Pressure Absolute Pressure Temperature Relative Humidity Dew Point   
(mb) (inHg) (mb) (inHg) (C) (F) (%) (C) (F)
00:05 1023 30.21 852 25.16 20 68 51 9.8 49.6
00:10 1023 30.21 852 25.16 19.8 67.6 54 10.3 50.5
00:15 1023 30.21 852 25.16 19.4 67 56 10.6 51.1
00:20 1023 30.21 852 25.16 19.2 66.5 58 10.9 51.6
00:25 1023 30.21 852 25.16 18.8 65.9 59 10.7 51.3
00:30 1023 30.21 852 25.16 18.8 65.9 59 10.7 51.3
00:35 1023 30.21 852 25.16 18.9 66 59 10.8 51.4
00:40 1023 30.21 852 25.16 18.8 65.8 59 10.8 51.4
00:45 1023 30.21 852 25.16 18.7 65.7 59 10.7 51.3
00:50 1023 30.21 852 25.16 18.7 65.7 60 10.9 51.6
00:55 1023 30.21 852 25.16 18.6 65.4 61 11 51.7
01:00 1023 30.21 852 25.16 18.5 65.3 61 10.8 51.5
01:05 1023 30.21 852 25.16 18.5 65.3 61 10.9 51.6
01:10 1023 30.21 852 25.16 18.5 65.3 60 10.7 51.2
01:15 1023 30.21 852 25.16 18.5 65.4 59 10.6 51.1
01:20 1023 30.21 852 25.16 18.5 65.2 63 11.5 52.6
01:25 1023 30.21 852 25.16 18.1 64.6 64 11.3 52.3
01:30 1023 30.21 852 25.16 17.9 64.3 66 11.5 52.6
01:35 1022 30.18 852 25.16 17.9 64.2 65 11.3 52.3
01:40 1022 30.18 852 25.16 18 64.4 62 10.7 51.2
01:45 1022 30.18 851 25.13 18.3 64.9 59 10.2 50.3
01:50 1022 30.18 851 25.13 18.4 65.1 63 11.2 52.2
01:55 1022 30.18 851 25.13 18.2 64.7 64 11.4 52.6
02:00 1022 30.18 851 25.13 18.1 64.6 60 10.3 50.6
02:05 1022 30.18 851 25.13 18.2 64.7 60 10.3 50.6
02:10 1022 30.18 851 25.13 18.1 64.7 60 10.3 50.5
02:15 1022 30.18 851 25.13 18.1 64.6 63 11 51.8
02:20 1022 30.18 851 25.13 18 64.4 64 11.3 52.3
02:25 1022 30.18 851 25.13 17.6 63.6 67 11.5 52.7
02:30 1022 30.18 851 25.13 17.2 62.9 71 11.8 53.3
02:35 1022 30.18 851 25.13 16.9 62.4 72 11.8 53.3
02:40 1022 30.18 851 25.13 16.8 62.3 69 11.2 52.2
02:45 1022 30.18 851 25.13 16.9 62.4 71 11.6 53
02:50 1022 30.18 851 25.13 16.9 62.3 72 11.8 53.2
02:55 1022 30.18 851 25.13 16.5 61.8 74 11.9 53.4
03:00 1022 30.18 851 25.13 16.5 61.6 74 11.9 53.4
03:05 1022 30.18 851 25.13 16.2 61.1 74 11.7 53
03:10 1022 30.18 851 25.13 16.1 60.9 75 11.7 53
03:15 1022 30.18 851 25.13 16.1 61 74 11.6 52.9
03:20 1022 30.18 851 25.13 16.2 61.1 75 11.7 53
03:25 1022 30.18 851 25.13 16.1 61 75 11.7 53.1
03:30 1022 30.18 851 25.13 16.1 61 76 11.9 53.4
03:35 1022 30.18 851 25.13 16.1 61 76 11.9 53.4
03:40 1022 30.18 851 25.13 16.1 60.9 75 11.7 53.1
03:45 1022 30.18 851 25.13 16.1 60.9 76 11.8 53.2
03:50 1022 30.18 851 25.13 16.2 61.1 74 11.5 52.8
03:55 1022 30.18 851 25.13 16.1 61 73 11.4 52.5
04:00 1022 30.18 851 25.13 16.2 61.2 71 11.1 51.9
04:05 1022 30.18 851 25.13 16.2 61.1 72 11.3 52.3
04:10 1022 30.18 851 25.13 16 60.9 73 11.3 52.3
04:15 1022 30.18 851 25.13 15.9 60.6 73 11.1 52
04:20 1022 30.18 851 25.13 15.8 60.4 74 11.1 52
04:25 1022 30.18 851 25.13 15.5 59.9 79 11.8 53.3
04:30 1022 30.18 851 25.13 15.2 59.3 77 11.2 52.2
04:35 1022 30.18 851 25.13 14.9 58.8 77 11 51.8
04:40 1022 30.18 851 25.13 14.9 58.8 77 10.9 51.7
04:45 1021 30.15 851 25.13 15 58.9 76 10.8 51.5
04:50 1021 30.15 851 25.13 14.9 58.9 76 10.8 51.5
04:55 1022 30.18 851 25.13 14.8 58.6 77 10.8 51.5
05:00 1022 30.18 851 25.13 14.6 58.3 77 10.7 51.2
05:05 1021 30.15 851 25.13 14.5 58 78 10.6 51.1
05:10 1021 30.15 851 25.13 14.5 58 78 10.6 51.1
05:15 1021 30.15 851 25.13 14.6 58.2 76 10.4 50.7
05:20 1021 30.15 851 25.13 14.5 58.1 77 10.6 51.1
05:25 1022 30.18 851 25.13 14.4 57.9 78 10.6 51.1
05:30 1022 30.18 851 25.13 14.4 57.9 78 10.6 51
05:35 1022 30.18 851 25.13 14.4 57.9 78 10.6 51.1
05:40 1022 30.18 851 25.13 14.4 57.8 77 10.3 50.6
05:45 1022 30.18 851 25.13 14.5 58.1 76 10.4 50.8
05:50 1022 30.18 851 25.13 14.6 58.2 76 10.4 50.7
05:55 1022 30.18 851 25.13 14.5 58.1 76 10.3 50.6
06:00 1022 30.18 851 25.13 14.4 57.9 78 10.6 51
06:05 1022 30.18 851 25.13 14.6 58.2 74 10.1 50.2
06:10 1022 30.18 851 25.13 14.7 58.5 75 10.4 50.8
06:15 1022 30.18 851 25.13 14.5 58.1 75 10.3 50.5
06:20 1022 30.18 851 25.13 14.5 58.1 75 10.2 50.4
06:25 1022 30.18 851 25.13 14.6 58.2 74 10.1 50.1
06:30 1022 30.18 851 25.13 14.8 58.6 73 10.1 50.1
06:35 1022 30.18 851 25.13 14.9 58.7 73 10 50
06:40 1022 30.18 851 25.13 15.1 59.1 71 10 50
06:45 1022 30.18 851 25.13 15.3 59.6 71 10.1 50.3
06:50 1022 30.18 851 25.13 15.6 60.1 69 9.9 49.9
06:55 1022 30.18 851 25.13 15.8 60.4 68 9.9 49.9
07:00 1022 30.18 851 25.13 15.7 60.2 70 10.3 50.5
07:05 1022 30.18 851 25.13 15.5 60 72 10.6 51.1
07:10 1022 30.18 851 25.13 15.6 60 72 10.6 51
07:15 1022 30.18 851 25.13 15.7 60.2 70 10.2 50.4
07:20 1022 30.18 851 25.13 15.7 60.3 70 10.3 50.5
07:25 1022 30.18 851 25.13 16 60.8 70 10.5 50.9
07:30 1022 30.18 851 25.13 16.4 61.6 67 10.4 50.7
07:35 1022 30.18 851 25.13 16.8 62.3 66 10.6 51.1
07:40 1022 30.18 851 25.13 17.1 62.8 64 10.4 50.7
07:45 1022 30.18 851 25.13 17.4 63.3 63 10.4 50.7
07:50 1022 30.18 851 25.13 17.9 64.3 60 10.1 50.2
07:55 1022 30.18 851 25.13 18.3 64.9 60 10.5 50.9
08:00 1022 30.18 851 25.13 18.7 65.6 61 11.1 51.9
08:05 1022 30.18 851 25.13 19 66.1 59 10.8 51.4
08:10 1022 30.18 851 25.13 19.2 66.5 55 10.2 50.3
08:15 1022 30.18 851 25.13 19.5 67.2 54 10.2 50.4
08:20 1022 30.18 851 25.13 19.9 67.8 51 9.6 49.3
08:25 1022 30.18 851 25.13 20.2 68.4 51 9.8 49.7
08:30 1022 30.18 851 25.13 20.5 68.9 50 9.9 49.7
08:35 1022 30.18 851 25.13 20.8 69.4 48 9.4 49
08:40 1022 30.18 851 25.13 20.5 68.9 51 10.1 50.1
08:45 1022 30.18 851 25.13 21 69.8 49 10.2 50.3
08:50 1022 30.18 851 25.13 21.5 70.7 46 9.7 49.5
08:55 1022 30.18 851 25.13 21.2 70.2 48 10 50
09:00 1022 30.18 851 25.13 21.9 71.4 46 10 49.9
09:05 1022 30.18 851 25.13 22.6 72.7 45 10.1 50.2
09:10 1022 30.18 851 25.13 23 73.3 44 10.3 50.5
09:15 1022 30.18 851 25.13 22.6 72.6 45 10.1 50.1
09:20 1022 30.18 851 25.13 22.9 73.3 45 10.6 51.2
09:25 1022 30.18 851 25.13 21.9 71.4 49 10.8 51.5
09:30 1022 30.18 851 25.13 21.5 70.8 47 9.9 49.8
09:35 1022 30.18 851 25.13 21.6 70.8 48 10.1 50.2
09:40 1022 30.18 851 25.13 21.8 71.2 48 10.4 50.7
09:45 1022 30.18 851 25.13 22 71.6 46 10.1 50.3
09:50 1022 30.18 851 25.13 22.2 71.9 46 10.1 50.2
09:55 1022 30.18 851 25.13 22.3 72.2 45 9.9 49.8
10:00 1022 30.18 851 25.13 22.7 72.8 45 10.3 50.6
10:05 1022 30.18 851 25.13 22.8 73 44 10.2 50.4
10:10 1022 30.18 851 25.13 22.8 73.1 45 10.5 50.9
10:15 1022 30.18 851 25.13 22.6 72.7 45 10.1 50.2
10:20 1022 30.18 851 25.13 23 73.4 44 10.4 50.7
10:25 1022 30.18 851 25.13 23.6 74.4 43 10.6 51.1
10:30 1022 30.18 851 25.13 23.7 74.7 43 10.8 51.4
10:35 1022 30.18 851 25.13 23.8 74.8 42 10.4 50.6
10:40 1022 30.18 851 25.13 24.3 75.7 42 10.7 51.3
10:45 1022 30.18 851 25.13 23.8 74.8 43 10.7 51.3
10:50 1021 30.15 851 25.13 23.9 75 42 10.3 50.5
10:55 1021 30.15 851 25.13 24.7 76.4 40 10.2 50.4
11:00 1021 30.15 850 25.1 25.3 77.6 38 10.2 50.3
11:05 1021 30.15 850 25.1 25.5 77.8 38 10.2 50.4
11:10 1021 30.15 850 25.1 24.3 75.7 40 10.1 50.2
11:15 1021 30.15 850 25.1 24.8 76.7 36 9 48.2
11:20 1021 30.15 850 25.1 25.3 77.6 35 8.9 48
11:25 1021 30.15 850 25.1 25.9 78.7 33 8.8 47.8
11:30 1021 30.15 850 25.1 26 78.7 34 8.9 48.1
11:35 1021 30.15 850 25.1 26.4 79.6 32 8.8 47.8
11:40 1021 30.15 850 25.1 27 80.5 32 9.3 48.8
11:45 1021 30.15 850 25.1 26.6 79.9 35 9.9 49.9
11:50 1021 30.15 850 25.1 26 78.8 35 9.8 49.6
11:55 1021 30.15 850 25.1 26.7 80.1 31 8.3 47
12:00 1021 30.15 850 25.1 27.2 80.9 30 8.2 46.7
12:05 1021 30.15 850 25.1 26.8 80.2 31 8.5 47.3
12:10 1021 30.15 850 25.1 26.7 80.1 30 7.9 46.2
12:15 1021 30.15 850 25.1 26.6 79.8 29 7.5 45.6
12:20 1021 30.15 850 25.1 26.8 80.2 29 7.8 46
12:25 1020 30.12 850 25.1 26.4 79.5 29 7.2 45
12:30 1020 30.12 850 25.1 26.8 80.2 28 7 44.7
12:35 1020 30.12 849 25.07 26.9 80.5 28 7.1 44.8
12:40 1020 30.12 849 25.07 26.9 80.3 27 6.6 43.9
12:45 1020 30.12 849 25.07 27.2 80.9 25 5.8 42.5
12:50 1020 30.12 849 25.07 27.6 81.6 26 6.7 44.1
12:55 1020 30.12 849 25.07 28.2 82.7 24 5.7 42.3
13:00 1020 30.12 849 25.07 28.3 82.9 24 5.9 42.7
13:05 1020 30.12 849 25.07 27.3 81.1 25 5.9 42.6
13:10 1020 30.12 849 25.07 27.3 81.2 24 5.3 41.6
13:15 1020 30.12 849 25.07 28.4 83.1 23 5.4 41.8
13:20 1020 30.12 849 25.07 29.4 84.9 22 5.9 42.6
13:25 1020 30.12 849 25.07 28.6 83.4 24 6.6 43.9
13:30 1019 30.09 849 25.07 27.5 81.5 24 5.4 41.6
13:35 1019 30.09 849 25.07 27.1 80.8 25 5.9 42.6
13:40 1019 30.09 849 25.07 27.9 82.1 24 5.9 42.6
13:45 1019 30.09 849 25.07 28.2 82.8 23 5.5 41.9
13:50 1019 30.09 849 25.07 28.6 83.5 23 5.9 42.7
13:55 1019 30.09 848 25.04 29.5 85 22 6.1 42.9
14:00 1019 30.09 848 25.04 30 86 22 6.2 43.2
14:05 1019 30.09 848 25.04 28.2 82.8 24 6 42.9
14:10 1019 30.09 848 25.04 28.1 82.7 23 5.5 41.9
14:15 1019 30.09 848 25.04 28.8 83.8 22 5.3 41.6
14:20 1019 30.09 848 25.04 29.2 84.6 23 6 42.8
14:25 1019 30.09 848 25.04 29.8 85.7 21 5.5 41.8
14:30 1019 30.09 848 25.04 29.6 85.3 22 6.1 43
14:35 1019 30.09 848 25.04 28.8 83.9 23 5.8 42.4
14:40 1019 30.09 848 25.04 28.6 83.6 22 5.1 41.2
14:45 1019 30.09 848 25.04 28.7 83.6 22 5.4 41.7
14:50 1019 30.09 848 25.04 28.6 83.5 23 5.7 42.2
14:55 1019 30.09 848 25.04 28.7 83.7 23 5.6 42.1
15:00 1019 30.09 848 25.04 29 84.2 25 7.3 45.2
15:05 1019 30.09 848 25.04 28.8 83.9 22 5.6 42.1
15:10 1018 30.06 848 25.04 28.8 83.8 25 7 44.5
15:15 1018 30.06 848 25.04 29.2 84.6 22 5.5 41.9
15:20 1018 30.06 847 25.01 29.6 85.3 22 5.8 42.4
15:25 1018 30.06 847 25.01 30.4 86.8 21 6 42.8
15:30 1018 30.06 847 25.01 30.6 87 24 7.8 46.1
15:35 1018 30.06 847 25.01 28.1 82.6 27 7.7 45.9
15:40 1018 30.06 847 25.01 27.2 81 28 7.6 45.7
15:45 1018 30.06 847 25.01 27.5 81.6 26 6.8 44.2
15:50 1018 30.06 847 25.01 27.7 81.8 28 7.8 46
15:55 1018 30.06 847 25.01 27.5 81.5 27 7.2 44.9
16:00 1018 30.06 847 25.01 27.1 80.8 27 7 44.6
16:05 1018 30.06 847 25.01 27.2 80.9 29 7.8 46
16:10 1018 30.06 847 25.01 27.2 80.9 28 7.5 45.5
16:15 1018 30.06 847 25.01 27.3 81.1 30 8.6 47.5
16:20 1018 30.06 847 25.01 26.7 80.1 29 7.4 45.4
16:25 1018 30.06 847 25.01 26.4 79.5 29 7.4 45.3
16:30 1018 30.06 848 25.04 26 78.7 32 8.1 46.6
16:35 1018 30.06 847 25.01 24.8 76.7 33 7.5 45.6
16:40 1018 30.06 848 25.04 24.1 75.3 35 8 46.3
16:45 1019 30.09 848 25.04 23.7 74.7 37 8.3 46.9
16:50 1018 30.06 848 25.04 23.6 74.4 37 8.3 46.9
16:55 1019 30.09 848 25.04 22.8 73.1 47 11 51.8
17:00 1018 30.06 848 25.04 21.6 70.8 63 14.3 57.7
17:05 1018 30.06 847 25.01 21 69.8 63 13.8 56.8
17:10 1018 30.06 847 25.01 20.9 69.5 62 13.4 56.1
17:15 1018 30.06 847 25.01 20.8 69.4 61 13.1 55.6
17:20 1018 30.06 847 25.01 21.1 69.9 56 12 53.6
17:25 1018 30.06 847 25.01 21.8 71.2 58 13.3 55.9
17:30 1018 30.06 847 25.01 22.2 72 54 12.7 54.8
17:35 1018 30.06 847 25.01 22.5 72.6 48 11.2 52.2
17:40 1018 30.06 847 25.01 22.6 72.7 48 11.1 52
17:45 1018 30.06 847 25.01 22.9 73.2 49 11.8 53.2
17:50 1018 30.06 848 25.04 22.7 72.9 53 12.9 55.2
17:55 1018 30.06 848 25.04 22.7 72.9 48 11.3 52.4
18:00 1018 30.06 847 25.01 23.1 73.7 43 10.1 50.2
18:05 1018 30.06 847 25.01 23.5 74.3 43 10.3 50.6
18:10 1018 30.06 847 25.01 23.7 74.6 41 10 50
18:15 1018 30.06 847 25.01 23.8 74.8 42 10.2 50.4
18:20 1018 30.06 847 25.01 23.6 74.5 42 10.3 50.6
18:25 1018 30.06 848 25.04 23.5 74.4 43 10.3 50.5
18:30 1018 30.06 847 25.01 23.4 74.2 44 10.6 51.1
18:35 1018 30.06 847 25.01 23.3 74 44 10.6 51
18:40 1018 30.06 847 25.01 23.2 73.8 44 10.4 50.8
18:45 1018 30.06 847 25.01 23.1 73.5 44 10.3 50.6
18:50 1018 30.06 847 25.01 23 73.3 45 10.4 50.7
18:55 1018 30.06 847 25.01 22.8 73 45 10.5 51
19:00 1018 30.06 847 25.01 22.6 72.7 46 10.6 51
19:05 1018 30.06 847 25.01 22.5 72.5 47 10.7 51.2
19:10 1018 30.06 847 25.01 22.3 72.1 47 10.7 51.3
19:15 1018 30.06 847 25.01 22.1 71.8 48 10.6 51.2
19:20 1018 30.06 847 25.01 22 71.7 47 10.5 50.9
19:25 1018 30.06 847 25.01 22 71.6 46 9.9 49.8
19:30 1018 30.06 847 25.01 22.1 71.8 45 9.9 49.9
19:35 1018 30.06 847 25.01 22.2 71.9 44 9.6 49.3
19:40 1018 30.06 847 25.01 22.2 71.9 44 9.4 49
19:45 1018 30.06 847 25.01 22.1 71.8 44 9.3 48.7
19:50 1018 30.06 847 25.01 22 71.6 43 9.1 48.3
19:55 1018 30.06 847 25.01 22 71.6 43 8.9 47.9
20:00 1018 30.06 847 25.01 22 71.6 43 8.9 48
20:05 1018 30.06 847 25.01 21.9 71.5 43 9 48.2
20:10 1018 30.06 847 25.01 21.8 71.3 43 8.8 47.9
20:15 1018 30.06 848 25.04 22 71.5 42 8.7 47.7
20:20 1018 30.06 848 25.04 22 71.6 43 8.9 48
20:25 1018 30.06 848 25.04 21.9 71.5 43 8.9 48.1
20:30 1018 30.06 848 25.04 21.9 71.5 43 8.9 47.9
20:35 1018 30.06 848 25.04 21.9 71.5 43 9 48.2
20:40 1019 30.09 848 25.04 21.8 71.3 43 9 48.2
20:45 1019 30.09 848 25.04 21.7 71.1 44 9.1 48.3
20:50 1019 30.09 848 25.04 21.7 71.1 44 9 48.2
20:55 1019 30.09 848 25.04 21.7 71 44 9 48.2
21:00 1019 30.09 848 25.04 21.6 70.8 44 9.1 48.4
21:05 1019 30.09 848 25.04 21.5 70.7 45 9.1 48.4
21:10 1019 30.09 848 25.04 21.5 70.6 45 9 48.3
21:15 1019 30.09 848 25.04 21.4 70.5 44 8.9 48.1
21:20 1019 30.09 848 25.04 21.5 70.7 44 8.9 48
21:25 1019 30.09 848 25.04 21.5 70.7 43 8.7 47.7
21:30 1019 30.09 848 25.04 21.6 70.9 43 8.6 47.5
21:35 1019 30.09 848 25.04 21.7 71 42 8.5 47.3
21:40 1019 30.09 848 25.04 21.7 71 43 8.7 47.7
21:45 1019 30.09 848 25.04 21.5 70.6 44 8.9 48
21:50 1019 30.09 848 25.04 21.3 70.3 44 8.8 47.9
21:55 1019 30.09 848 25.04 21.2 70.1 45 8.9 47.9
22:00 1019 30.09 848 25.04 20.9 69.7 47 9.2 48.5
22:05 1019 30.09 848 25.04 20.6 69.1 47 9.2 48.5
22:10 1019 30.09 848 25.04 20.3 68.6 52 10.3 50.5
22:15 1019 30.09 848 25.04 19.8 67.7 54 10.4 50.8
22:20 1019 30.09 848 25.04 19.6 67.2 55 10.5 50.9
22:25 1019 30.09 848 25.04 19.4 67 55 10.3 50.6
22:30 1019 30.09 848 25.04 19.4 66.9 53 9.6 49.4
22:35 1019 30.09 848 25.04 19.5 67.1 51 9.3 48.7
22:40 1019 30.09 848 25.04 19.5 67 52 9.4 48.9
22:45 1019 30.09 848 25.04 19.4 66.9 55 10.2 50.4
22:50 1019 30.09 848 25.04 19 66.1 58 10.6 51
22:55 1019 30.09 848 25.04 18.5 65.3 60 10.8 51.4
23:00 1019 30.09 848 25.04 18 64.4 62 10.8 51.5
23:05 1019 30.09 848 25.04 17.7 63.9 63 10.7 51.2
23:10 1019 30.09 848 25.04 17.7 63.9 65 11.2 52.2
23:15 1019 30.09 849 25.07 17.7 63.9 64 10.8 51.5
23:20 1019 30.09 849 25.07 17.7 63.8 64 10.9 51.7
23:25 1020 30.12 849 25.07 17.5 63.6 65 11 51.9
23:30 1020 30.12 849 25.07 17.6 63.6 65 11.1 51.9
23:35 1020 30.12 849 25.07 17.7 63.9 64 11 51.8
23:40 1020 30.12 849 25.07 18 64.4 63 11 51.9
23:45 1020 30.12 849 25.07 18.2 64.8 63 11.2 52.2
23:50 1020 30.12 849 25.07 18.3 65 63 11.2 52.2
23:55 1020 30.12 850 25.1 18.2 64.8 64 11.4 52.6
24:00 1020 30.12 850 25.1 18.2 64.7 64 11.3 52.4